Wind From: 11-12-2017 12:03 Until: 12-12-2017 06:00 warning for: Wind Level: Orange info button

Power and phone distribution networks may be disrupted for relatively long periods., Roofs and chimneys can be damaged. , Tree branches may break. , Vehicles can be deported. , Traffic may be disrupted, particularly on secondary roads in forest areas. Limit your trips. , Limit your speed in highway driving, especially if you drive a vehicle or hitch sensitive to wind. , Do not go for walks in forests or along the coast., In town, be vigilant against possible falling objects., Do not work on roofs and do not touch any electrical line fallen on the ground., Store or secure sensitive objects to wind or likely to be damaged., Always install power generators outside buildings. 


Meteo18 Weather Cam more information Meteo18 Weather Cam


Thunder radar more information blitzortung!


Rain radar more information rain snow radar


Visit our other weather sites:

Template documentation
and downloads

And another site



Weather Underground History page Text

Daily Summary for November 19, 2016 Units:  Metric    English   Both
« Previous Day
Next Day »
Daily Weekly Monthly Yearly Custom
  High: Low: Average:
Temperature: 9.6 °C 5.1 °C 6.8 °C
Dew Point: 5.9 °C 3.2 °C 4.6 °C
Humidity: 95 % 69 % 86 %
Wind Speed: 19.3 km/h 0.0 km/h 7 km/h
Wind Gust: 29.0 km/h - -
Wind:- - SSW
Pressure: 1013.8 hPa 1004.3 hPa -
Precipitation: 0.8 mm    
Historical Graphs
 
 
Tabular Data for November 19, 2016
Time Temperature Dew Point Pressure Wind Wind Speed Wind Gust Humidity Rainfall Rate (Hourly)
00:02 6.0 °C 5.0 °C 1010.0 hPa SSW 9.7 km/h 19.3 km/h 93 % 2.8 mm
00:07 5.9 °C 4.9 °C 1009.7 hPa SW 4.8 km/h 19.3 km/h 93 % 3.0 mm
00:12 5.9 °C 4.9 °C 1009.4 hPa WSW 11.3 km/h 19.3 km/h 93 % 2.8 mm
00:22 5.9 °C 4.9 °C 1009.4 hPa SSW 6.4 km/h 16.1 km/h 93 % 2.5 mm
00:32 5.7 °C 4.8 °C 1009.0 hPa SSW 4.8 km/h 12.9 km/h 94 % 2.0 mm
00:37 5.7 °C 4.8 °C 1009.4 hPa South 4.8 km/h 12.9 km/h 94 % 2.0 mm
00:42 5.6 °C 4.9 °C 1009.4 hPa SW 6.4 km/h 11.3 km/h 95 % 1.8 mm
00:47 5.5 °C 4.8 °C 1009.4 hPa SSW 8.0 km/h 11.3 km/h 95 % 1.3 mm
00:57 5.5 °C 4.8 °C 1009.4 hPa SSW 8.0 km/h 12.9 km/h 95 % 0.5 mm
01:02 5.6 °C 4.9 °C 1009.4 hPa SW 8.0 km/h 12.9 km/h 95 % 0.3 mm
01:07 5.6 °C 4.9 °C 1009.4 hPa SW 6.4 km/h 16.1 km/h 95 % 0.0 mm
01:12 5.6 °C 4.9 °C 1009.4 hPa SSW 6.4 km/h 16.1 km/h 95 % 0.0 mm
01:17 5.7 °C 5.0 °C 1009.4 hPa SW 8.0 km/h 14.5 km/h 95 % 0.0 mm
01:22 5.8 °C 5.1 °C 1009.4 hPa SSW 6.4 km/h 14.5 km/h 95 % 0.0 mm
01:27 5.8 °C 5.1 °C 1009.0 hPa SSW 3.2 km/h 12.9 km/h 95 % 0.0 mm
01:32 5.8 °C 4.9 °C 1008.7 hPa SSW 4.8 km/h 12.9 km/h 94 % 0.0 mm
01:37 5.7 °C 4.8 °C 1008.7 hPa SW 4.8 km/h 11.3 km/h 94 % 0.0 mm
01:47 5.8 °C 5.1 °C 1008.4 hPa WSW 6.4 km/h 8.0 km/h 95 % 0.0 mm
01:52 6.0 °C 5.3 °C 1008.4 hPa SW 6.4 km/h 8.0 km/h 95 % 0.0 mm
01:57 6.1 °C 5.4 °C 1008.4 hPa SW 9.7 km/h 12.9 km/h 95 % 0.0 mm
02:02 6.2 °C 5.3 °C 1008.4 hPa WSW 9.7 km/h 12.9 km/h 94 % 0.0 mm
02:12 6.3 °C 5.4 °C 1008.7 hPa SW 12.9 km/h 19.3 km/h 94 % 0.0 mm
02:17 6.5 °C 5.4 °C 1008.7 hPa SW 8.0 km/h 24.1 km/h 93 % 0.0 mm
02:22 6.6 °C 5.5 °C 1009.0 hPa WSW 17.7 km/h 24.1 km/h 93 % 0.0 mm
02:27 6.7 °C 5.6 °C 1009.0 hPa SW 9.7 km/h 20.9 km/h 93 % 0.0 mm
02:32 6.8 °C 5.7 °C 1009.0 hPa SW 17.7 km/h 20.9 km/h 93 % 0.0 mm
02:37 6.9 °C 5.7 °C 1009.0 hPa SW 16.1 km/h 24.1 km/h 92 % 0.0 mm
02:42 6.9 °C 5.7 °C 1009.0 hPa SSW 19.3 km/h 24.1 km/h 92 % 0.0 mm
02:47 7.0 °C 5.8 °C 1009.0 hPa SW 11.3 km/h 24.1 km/h 92 % 0.0 mm
02:52 7.1 °C 5.9 °C 1009.0 hPa SW 14.5 km/h 24.1 km/h 92 % 0.0 mm
02:57 7.0 °C 5.8 °C 1009.0 hPa SW 17.7 km/h 22.5 km/h 92 % 0.0 mm
03:02 6.9 °C 5.8 °C 1009.0 hPa SW 12.9 km/h 22.5 km/h 93 % 0.0 mm
03:07 6.9 °C 5.8 °C 1009.0 hPa SW 8.0 km/h 19.3 km/h 93 % 0.0 mm
03:12 6.9 °C 5.8 °C 1008.7 hPa WSW 6.4 km/h 19.3 km/h 93 % 0.0 mm
03:17 6.8 °C 5.7 °C 1008.7 hPa SW 9.7 km/h 16.1 km/h 93 % 0.0 mm
03:32 6.8 °C 5.9 °C 1009.4 hPa SW 9.7 km/h 16.1 km/h 94 % 0.0 mm
03:37 6.7 °C 5.8 °C 1009.0 hPa SW 6.4 km/h 16.1 km/h 94 % 0.0 mm
03:42 6.7 °C 5.8 °C 1009.0 hPa West 6.4 km/h 16.1 km/h 94 % 0.3 mm
03:52 6.7 °C 5.8 °C 1009.4 hPa SW 4.8 km/h 20.9 km/h 94 % 0.3 mm
03:57 6.6 °C 5.5 °C 1009.4 hPa WSW 11.3 km/h 20.9 km/h 93 % 0.3 mm
04:02 6.6 °C 5.7 °C 1009.4 hPa WSW 3.2 km/h 20.9 km/h 94 % 0.3 mm
04:07 6.5 °C 5.4 °C 1009.4 hPa SW 11.3 km/h 19.3 km/h 93 % 0.3 mm
04:12 6.5 °C 5.4 °C 1009.4 hPa SSW 3.2 km/h 19.3 km/h 93 % 0.3 mm
04:17 6.4 °C 5.4 °C 1009.4 hPa SW 6.4 km/h 16.1 km/h 93 % 0.3 mm
04:22 6.3 °C 5.3 °C 1009.4 hPa SW 9.7 km/h 16.1 km/h 93 % 0.3 mm
04:27 6.3 °C 5.3 °C 1009.4 hPa SW 4.8 km/h 19.3 km/h 93 % 0.3 mm
04:32 6.2 °C 5.2 °C 1009.4 hPa West 1.6 km/h 19.3 km/h 93 % 0.3 mm
04:37 6.2 °C 5.2 °C 1009.7 hPa SW 8.0 km/h 19.3 km/h 93 % 0.3 mm
04:42 6.1 °C 5.1 °C 1009.7 hPa WSW 9.7 km/h 19.3 km/h 93 % 0.0 mm
04:47 6.1 °C 5.1 °C 1009.7 hPa SSW 8.0 km/h 16.1 km/h 93 % 0.3 mm
04:52 6.0 °C 5.0 °C 1009.7 hPa SW 8.0 km/h 16.1 km/h 93 % 0.3 mm
05:02 5.8 °C 4.8 °C 1010.0 hPa SW 9.7 km/h 16.1 km/h 93 % 0.3 mm
05:12 5.7 °C 4.8 °C 1010.0 hPa SW 4.8 km/h 17.7 km/h 94 % 0.3 mm
05:17 5.6 °C 4.7 °C 1010.0 hPa WSW 3.2 km/h 16.1 km/h 94 % 0.3 mm
05:22 5.6 °C 4.7 °C 1010.4 hPa SW 3.2 km/h 16.1 km/h 94 % 0.3 mm
05:32 5.7 °C 4.8 °C 1010.4 hPa SW 14.5 km/h 14.5 km/h 94 % 0.3 mm
05:42 5.7 °C 4.8 °C 1010.4 hPa West 4.8 km/h 16.1 km/h 94 % 0.3 mm
05:52 5.7 °C 4.8 °C 1010.4 hPa SW 6.4 km/h 16.1 km/h 94 % 0.3 mm
05:57 5.8 °C 4.9 °C 1010.4 hPa SW 6.4 km/h 17.7 km/h 94 % 0.0 mm
06:02 5.8 °C 4.9 °C 1010.4 hPa West 9.7 km/h 17.7 km/h 94 % 0.0 mm
06:07 5.8 °C 4.9 °C 1010.4 hPa WSW 9.7 km/h 17.7 km/h 94 % 0.0 mm
06:12 5.8 °C 4.9 °C 1010.4 hPa SW 8.0 km/h 17.7 km/h 94 % 0.0 mm
06:22 5.8 °C 4.9 °C 1010.7 hPa WSW 12.9 km/h 19.3 km/h 94 % 0.0 mm
06:32 5.8 °C 4.9 °C 1011.1 hPa WSW 4.8 km/h 19.3 km/h 94 % 0.0 mm
06:42 5.8 °C 4.9 °C 1011.1 hPa SSE 11.3 km/h 14.5 km/h 94 % 0.0 mm
06:47 5.8 °C 4.8 °C 1011.1 hPa West 16.1 km/h 20.9 km/h 93 % 0.0 mm
06:52 5.8 °C 4.8 °C 1011.1 hPa SW 14.5 km/h 20.9 km/h 93 % 0.0 mm
06:57 5.8 °C 4.8 °C 1011.1 hPa WSW 6.4 km/h 22.5 km/h 93 % 0.3 mm
07:02 5.8 °C 4.8 °C 1011.4 hPa WSW 14.5 km/h 22.5 km/h 93 % 0.3 mm
07:12 5.8 °C 4.8 °C 1011.4 hPa West 11.3 km/h 22.5 km/h 93 % 0.3 mm
07:17 5.8 °C 4.8 °C 1011.4 hPa SW 4.8 km/h 22.5 km/h 93 % 0.3 mm
07:22 5.8 °C 4.8 °C 1011.7 hPa West 8.0 km/h 22.5 km/h 93 % 0.3 mm
07:32 5.7 °C 4.7 °C 1011.7 hPa WSW 9.7 km/h 16.1 km/h 93 % 0.3 mm
07:37 5.6 °C 4.6 °C 1011.7 hPa SSW 8.0 km/h 16.1 km/h 93 % 0.3 mm
07:42 5.5 °C 4.5 °C 1011.7 hPa SW 4.8 km/h 16.1 km/h 93 % 0.3 mm
07:52 5.4 °C 4.5 °C 1011.7 hPa SW 12.9 km/h 16.1 km/h 94 % 0.3 mm
07:57 5.3 °C 4.4 °C 1012.1 hPa SW 4.8 km/h 16.1 km/h 94 % 0.0 mm
08:02 5.3 °C 4.4 °C 1012.1 hPa NNW 1.6 km/h 16.1 km/h 94 % 0.0 mm
08:12 5.3 °C 4.4 °C 1012.1 hPa South 4.8 km/h 16.1 km/h 94 % 0.0 mm
08:17 5.2 °C 4.3 °C 1012.1 hPa SSW 6.4 km/h 11.3 km/h 94 % 0.0 mm
08:22 5.2 °C 4.3 °C 1012.4 hPa SSW 6.4 km/h 11.3 km/h 94 % 0.0 mm
08:32 5.1 °C 4.2 °C 1012.4 hPa SSW 8.0 km/h 12.9 km/h 94 % 0.0 mm
08:42 5.1 °C 4.2 °C 1012.8 hPa SSW 8.0 km/h 12.9 km/h 94 % 0.0 mm
08:52 5.1 °C 4.2 °C 1012.8 hPa South 4.8 km/h 11.3 km/h 94 % 0.0 mm
08:57 5.1 °C 4.2 °C 1012.8 hPa SSW 3.2 km/h 11.3 km/h 94 % 0.0 mm
09:12 5.1 °C 4.2 °C 1013.1 hPa SSW 6.4 km/h 14.5 km/h 94 % 0.0 mm
09:22 5.2 °C 4.3 °C 1013.1 hPa SW 8.0 km/h 12.9 km/h 94 % 0.0 mm
09:27 5.2 °C 4.3 °C 1013.1 hPa SW 8.0 km/h 16.1 km/h 94 % 0.0 mm
09:42 5.4 °C 4.4 °C 1013.4 hPa WSW 6.4 km/h 22.5 km/h 93 % 0.0 mm
09:47 5.4 °C 4.4 °C 1013.4 hPa SW 17.7 km/h 22.5 km/h 93 % 0.0 mm
09:52 5.5 °C 4.5 °C 1013.4 hPa WSW 6.4 km/h 22.5 km/h 93 % 0.0 mm
09:57 5.6 °C 4.4 °C 1013.4 hPa SW 11.3 km/h 24.1 km/h 92 % 0.0 mm
10:02 5.7 °C 4.5 °C 1013.4 hPa WSW 6.4 km/h 24.1 km/h 92 % 0.0 mm
10:12 5.8 °C 4.6 °C 1013.4 hPa South 9.7 km/h 24.1 km/h 92 % 0.0 mm
10:17 5.9 °C 4.7 °C 1013.4 hPa West 4.8 km/h 16.1 km/h 92 % 0.0 mm
10:32 6.1 °C 4.6 °C 1013.4 hPa SSW 6.4 km/h 14.5 km/h 90 % 0.0 mm
10:42 6.2 °C 4.5 °C 1013.8 hPa SW 8.0 km/h 19.3 km/h 89 % 0.0 mm
10:47 6.3 °C 4.5 °C 1013.8 hPa South 8.0 km/h 19.3 km/h 88 % 0.0 mm
10:52 6.4 °C 4.6 °C 1013.4 hPa South 3.2 km/h 19.3 km/h 88 % 0.0 mm
10:57 6.5 °C 4.7 °C 1013.8 hPa SW 9.7 km/h 27.4 km/h 88 % 0.0 mm
11:02 6.6 °C 4.6 °C 1013.8 hPa WSW 4.8 km/h 27.4 km/h 87 % 0.0 mm
11:07 6.7 °C 4.7 °C 1013.8 hPa WSW 11.3 km/h 19.3 km/h 87 % 0.0 mm
11:12 6.8 °C 4.6 °C 1013.8 hPa SW 17.7 km/h 19.3 km/h 86 % 0.0 mm
11:22 7.0 °C 4.7 °C 1013.8 hPa WSW 9.7 km/h 25.7 km/h 85 % 0.0 mm
11:32 7.2 °C 4.8 °C 1013.8 hPa WSW 6.4 km/h 29.0 km/h 85 % 0.0 mm
11:37 7.2 °C 4.7 °C 1013.8 hPa WSW 19.3 km/h 22.5 km/h 84 % 0.0 mm
11:52 7.6 °C 5.2 °C 1013.4 hPa SW 9.7 km/h 25.7 km/h 85 % 0.0 mm
12:02 7.5 °C 4.8 °C 1013.4 hPa SW 9.7 km/h 19.3 km/h 83 % 0.0 mm
12:12 7.8 °C 4.9 °C 1013.4 hPa SW 17.7 km/h 27.4 km/h 82 % 0.0 mm
12:17 7.9 °C 4.8 °C 1013.4 hPa WSW 6.4 km/h 27.4 km/h 81 % 0.0 mm
12:22 8.0 °C 4.9 °C 1013.4 hPa WNW 9.7 km/h 22.5 km/h 81 % 0.0 mm
12:32 7.9 °C 4.8 °C 1013.4 hPa SW 11.3 km/h 29.0 km/h 81 % 0.0 mm
12:37 8.1 °C 4.9 °C 1013.4 hPa SSE 8.0 km/h 29.0 km/h 80 % 0.0 mm
12:42 8.1 °C 4.9 °C 1013.4 hPa SW 12.9 km/h 29.0 km/h 80 % 0.0 mm
12:47 8.2 °C 5.1 °C 1013.1 hPa SW 4.8 km/h 20.9 km/h 81 % 0.0 mm
12:52 8.4 °C 5.0 °C 1013.1 hPa West 14.5 km/h 20.9 km/h 79 % 0.0 mm
12:57 8.7 °C 5.4 °C 1013.1 hPa SW 4.8 km/h 20.9 km/h 80 % 0.0 mm
13:02 8.9 °C 5.3 °C 1013.1 hPa SW 8.0 km/h 20.9 km/h 78 % 0.0 mm
13:07 8.8 °C 4.8 °C 1012.8 hPa WSW 9.7 km/h 17.7 km/h 76 % 0.0 mm
13:12 8.5 °C 4.3 °C 1012.8 hPa SSE 16.1 km/h 17.7 km/h 75 % 0.0 mm
13:17 8.4 °C 4.8 °C 1012.8 hPa WSW 11.3 km/h 22.5 km/h 78 % 0.0 mm
13:22 8.3 °C 4.5 °C 1012.8 hPa SW 12.9 km/h 22.5 km/h 77 % 0.0 mm
13:32 8.4 °C 4.8 °C 1012.8 hPa SW 4.8 km/h 20.9 km/h 78 % 0.0 mm
13:37 8.5 °C 4.9 °C 1012.8 hPa SW 12.9 km/h 20.9 km/h 78 % 0.0 mm
13:47 8.4 °C 4.4 °C 1012.8 hPa SW 6.4 km/h 20.9 km/h 76 % 0.0 mm
13:52 8.4 °C 4.4 °C 1012.8 hPa SW 4.8 km/h 20.9 km/h 76 % 0.0 mm
13:57 8.6 °C 4.4 °C 1012.8 hPa WSW 12.9 km/h 19.3 km/h 75 % 0.0 mm
14:02 8.8 °C 4.4 °C 1012.8 hPa SW 19.3 km/h 19.3 km/h 74 % 0.0 mm
14:07 9.2 °C 5.0 °C 1012.4 hPa WSW 9.7 km/h 20.9 km/h 75 % 0.0 mm
14:12 9.6 °C 5.0 °C 1012.4 hPa SSW 11.3 km/h 20.9 km/h 73 % 0.0 mm
14:22 9.5 °C 4.1 °C 1012.4 hPa SW 16.1 km/h 22.5 km/h 69 % 0.0 mm
14:32 9.2 °C 4.4 °C 1012.1 hPa WSW 6.4 km/h 29.0 km/h 72 % 0.0 mm
14:37 9.4 °C 4.6 °C 1012.1 hPa SW 12.9 km/h 24.1 km/h 72 % 0.0 mm
14:42 9.5 °C 4.5 °C 1012.1 hPa SW 16.1 km/h 24.1 km/h 71 % 0.0 mm
14:47 9.5 °C 4.7 °C 1012.1 hPa SSW 9.7 km/h 24.1 km/h 72 % 0.0 mm
14:52 9.6 °C 4.6 °C 1011.7 hPa SSW 9.7 km/h 24.1 km/h 71 % 0.0 mm
14:57 9.5 °C 4.9 °C 1011.7 hPa SW 14.5 km/h 24.1 km/h 73 % 0.0 mm
15:02 9.3 °C 4.7 °C 1011.7 hPa SSW 6.4 km/h 24.1 km/h 73 % 0.0 mm
15:07 9.3 °C 4.7 °C 1011.7 hPa SW 6.4 km/h 22.5 km/h 73 % 0.0 mm
15:12 9.3 °C 4.5 °C 1011.7 hPa SW 1.6 km/h 22.5 km/h 72 % 0.0 mm
15:17 9.3 °C 4.3 °C 1011.4 hPa SW 11.3 km/h 17.7 km/h 71 % 0.0 mm
15:22 9.3 °C 4.3 °C 1011.4 hPa SW 14.5 km/h 17.7 km/h 71 % 0.0 mm
15:32 9.1 °C 4.7 °C 1011.4 hPa SW 8.0 km/h 19.3 km/h 74 % 0.0 mm
15:37 8.9 °C 4.1 °C 1011.4 hPa South 11.3 km/h 19.3 km/h 72 % 0.0 mm
15:42 9.0 °C 4.4 °C 1011.4 hPa SSW 4.8 km/h 19.3 km/h 73 % 0.0 mm
15:52 8.8 °C 5.0 °C 1011.1 hPa SSW 6.4 km/h 19.3 km/h 77 % 0.0 mm
15:57 8.7 °C 4.7 °C 1011.1 hPa SSW 8.0 km/h 12.9 km/h 76 % 0.0 mm
16:02 8.7 °C 4.7 °C 1011.1 hPa SSW 9.7 km/h 12.9 km/h 76 % 0.0 mm
16:07 8.6 °C 4.6 °C 1011.1 hPa SSW 6.4 km/h 14.5 km/h 76 % 0.0 mm
16:12 8.4 °C 4.6 °C 1011.1 hPa South 3.2 km/h 14.5 km/h 77 % 0.0 mm
16:17 8.4 °C 4.6 °C 1011.1 hPa South 4.8 km/h 14.5 km/h 77 % 0.0 mm
16:22 8.3 °C 4.5 °C 1011.1 hPa SE 3.2 km/h 14.5 km/h 77 % 0.0 mm
16:27 8.2 °C 4.6 °C 1011.1 hPa South 1.6 km/h 11.3 km/h 78 % 0.0 mm
16:37 8.1 °C 4.7 °C 1011.1 hPa SSE 4.8 km/h 9.7 km/h 79 % 0.0 mm
16:42 8.0 °C 4.8 °C 1011.1 hPa SSW 3.2 km/h 9.7 km/h 80 % 0.0 mm
16:47 7.9 °C 4.7 °C 1011.1 hPa SSW 1.6 km/h 9.7 km/h 80 % 0.0 mm
16:52 7.8 °C 4.6 °C 1011.1 hPa SSE 3.2 km/h 9.7 km/h 80 % 0.0 mm
16:57 7.7 °C 4.5 °C 1011.1 hPa SSW 1.6 km/h 8.0 km/h 80 % 0.0 mm
17:02 7.7 °C 4.5 °C 1011.1 hPa South 1.6 km/h 8.0 km/h 80 % 0.0 mm
17:17 7.4 °C 4.5 °C 1011.1 hPa SSE 3.2 km/h 9.7 km/h 82 % 0.0 mm
17:22 7.3 °C 4.4 °C 1011.1 hPa SW 6.4 km/h 9.7 km/h 82 % 0.0 mm
17:32 7.2 °C 4.5 °C 1010.7 hPa SSW 1.6 km/h 6.4 km/h 83 % 0.0 mm
17:37 7.1 °C 4.4 °C 1010.7 hPa SSE 1.6 km/h 6.4 km/h 83 % 0.0 mm
17:42 7.0 °C 4.5 °C 1010.4 hPa SSW 1.6 km/h 6.4 km/h 84 % 0.0 mm
17:47 6.9 °C 4.4 °C 1010.4 hPa Calm   6.4 km/h 84 % 0.0 mm
18:02 6.7 °C 4.2 °C 1010.4 hPa Calm   4.8 km/h 84 % 0.0 mm
18:12 6.7 °C 4.2 °C 1010.4 hPa SE 3.2 km/h 4.8 km/h 84 % 0.0 mm
18:17 6.6 °C 4.3 °C 1010.0 hPa SE 1.6 km/h 4.8 km/h 85 % 0.0 mm
18:22 6.6 °C 4.1 °C 1010.0 hPa South 3.2 km/h 4.8 km/h 84 % 0.0 mm
18:27 6.7 °C 4.2 °C 1010.0 hPa SSE 3.2 km/h 4.8 km/h 84 % 0.0 mm
18:32 6.7 °C 4.0 °C 1010.0 hPa SSE 1.6 km/h 9.7 km/h 83 % 0.0 mm
18:37 6.7 °C 4.2 °C 1010.0 hPa Calm   9.7 km/h 84 % 0.0 mm
18:42 6.6 °C 4.1 °C 1009.7 hPa SSE 1.6 km/h 9.7 km/h 84 % 0.0 mm
18:52 6.6 °C 3.9 °C 1009.7 hPa SE 1.6 km/h 6.4 km/h 83 % 0.0 mm
19:07 6.5 °C 4.0 °C 1009.7 hPa SSE 1.6 km/h 9.7 km/h 84 % 0.0 mm
19:12 6.5 °C 4.0 °C 1009.7 hPa South 1.6 km/h 9.7 km/h 84 % 0.0 mm
19:32 6.4 °C 3.9 °C 1009.4 hPa SSE 4.8 km/h 6.4 km/h 84 % 0.0 mm
19:37 6.4 °C 3.9 °C 1009.4 hPa Calm   8.0 km/h 84 % 0.0 mm
19:42 6.3 °C 4.0 °C 1009.4 hPa Calm   8.0 km/h 85 % 0.0 mm
19:47 6.3 °C 4.0 °C 1009.4 hPa Calm   6.4 km/h 85 % 0.0 mm
19:57 6.2 °C 3.9 °C 1009.0 hPa Calm   4.8 km/h 85 % 0.0 mm
20:02 6.2 °C 3.9 °C 1009.0 hPa SE 1.6 km/h 4.8 km/h 85 % 0.0 mm
20:07 6.2 °C 4.0 °C 1009.0 hPa Calm   4.8 km/h 86 % 0.0 mm
20:12 6.1 °C 3.9 °C 1008.7 hPa Calm   4.8 km/h 86 % 0.0 mm
20:17 6.1 °C 3.9 °C 1008.7 hPa ESE 3.2 km/h 6.4 km/h 86 % 0.0 mm
20:32 6.3 °C 3.8 °C 1008.4 hPa South 1.6 km/h 9.7 km/h 84 % 0.0 mm
20:37 6.3 °C 3.6 °C 1008.4 hPa SSE 3.2 km/h 9.7 km/h 83 % 0.0 mm
20:42 6.4 °C 3.7 °C 1008.4 hPa SE 6.4 km/h 9.7 km/h 83 % 0.0 mm
20:57 6.5 °C 3.6 °C 1008.4 hPa South 3.2 km/h 11.3 km/h 82 % 0.0 mm
21:02 6.5 °C 3.6 °C 1008.0 hPa SSE 6.4 km/h 11.3 km/h 82 % 0.0 mm
21:07 6.4 °C 3.6 °C 1008.4 hPa SSE 4.8 km/h 11.3 km/h 82 % 0.0 mm
21:12 6.4 °C 3.7 °C 1008.4 hPa South 3.2 km/h 11.3 km/h 83 % 0.0 mm
21:17 6.4 °C 3.7 °C 1008.0 hPa SE 4.8 km/h 14.5 km/h 83 % 0.0 mm
21:22 6.3 °C 3.6 °C 1008.0 hPa SE 4.8 km/h 14.5 km/h 83 % 0.0 mm
21:27 6.3 °C 3.6 °C 1008.0 hPa South 1.6 km/h 16.1 km/h 83 % 0.0 mm
21:37 6.4 °C 3.7 °C 1008.0 hPa SE 8.0 km/h 14.5 km/h 83 % 0.0 mm
21:42 6.5 °C 3.6 °C 1007.7 hPa SSE 4.8 km/h 14.5 km/h 82 % 0.0 mm
21:47 6.6 °C 3.7 °C 1007.7 hPa South 6.4 km/h 16.1 km/h 82 % 0.0 mm
21:52 6.6 °C 3.9 °C 1007.3 hPa SE 1.6 km/h 16.1 km/h 83 % 0.0 mm
21:57 6.6 °C 3.7 °C 1007.3 hPa South 4.8 km/h 14.5 km/h 82 % 0.0 mm
22:02 6.7 °C 3.8 °C 1007.0 hPa SSE 6.4 km/h 14.5 km/h 82 % 0.0 mm
22:07 6.7 °C 3.7 °C 1007.0 hPa East 6.4 km/h 11.3 km/h 81 % 0.0 mm
22:12 6.7 °C 3.7 °C 1006.7 hPa SSE 1.6 km/h 11.3 km/h 81 % 0.0 mm
22:17 6.7 °C 3.8 °C 1007.0 hPa SSW 3.2 km/h 11.3 km/h 82 % 0.0 mm
22:22 6.6 °C 3.7 °C 1006.7 hPa SSE 6.4 km/h 11.3 km/h 82 % 0.0 mm
22:27 6.6 °C 3.7 °C 1006.7 hPa SSE 3.2 km/h 11.3 km/h 82 % 0.0 mm
22:32 6.6 °C 3.7 °C 1006.7 hPa SSE 3.2 km/h 11.3 km/h 82 % 0.0 mm
22:37 6.5 °C 3.5 °C 1006.3 hPa SE 6.4 km/h 11.3 km/h 81 % 0.0 mm
22:47 6.4 °C 3.6 °C 1006.3 hPa SE 1.6 km/h 9.7 km/h 82 % 0.0 mm
22:52 6.4 °C 3.6 °C 1006.0 hPa SSE 3.2 km/h 9.7 km/h 82 % 0.0 mm
22:57 6.3 °C 3.3 °C 1005.6 hPa SE 3.2 km/h 9.7 km/h 81 % 0.0 mm
23:02 6.4 °C 3.4 °C 1005.6 hPa SE 4.8 km/h 9.7 km/h 81 % 0.0 mm
23:12 6.3 °C 3.3 °C 1005.3 hPa SE 1.6 km/h 8.0 km/h 81 % 0.0 mm
23:17 6.2 °C 3.2 °C 1005.3 hPa South 1.6 km/h 11.3 km/h 81 % 0.0 mm
23:22 6.2 °C 3.2 °C 1005.0 hPa SE 4.8 km/h 11.3 km/h 81 % 0.0 mm
23:27 6.2 °C 3.2 °C 1005.0 hPa SE 3.2 km/h 12.9 km/h 81 % 0.0 mm
23:32 6.2 °C 3.2 °C 1005.0 hPa South 1.6 km/h 12.9 km/h 81 % 0.0 mm
23:37 6.2 °C 3.2 °C 1005.0 hPa SE 1.6 km/h 16.1 km/h 81 % 0.0 mm
23:42 6.3 °C 3.3 °C 1005.0 hPa SSE 4.8 km/h 16.1 km/h 81 % 0.0 mm
23:47 6.4 °C 3.2 °C 1004.6 hPa SSE 4.8 km/h 20.9 km/h 80 % 0.0 mm
23:52 6.4 °C 3.2 °C 1004.3 hPa SE 3.2 km/h 20.9 km/h 80 % 0.0 mm
23:57 6.5 °C 3.3 °C 1004.3 hPa SSE 14.5 km/h 20.9 km/h 80 % 0.0 mm
Meteo18
Compliments of Weather Underground - 4 mb

Script developed by  Jim McMurry - jmcmurry@mwt.net Adapted for the template by  Wim van der Kuil - Leuven-Template.eu

You find our weather info also at:

European Weather Network

Weather Underground

Equipment we use:

Weather-station
Davis Vue

Weather-program
Meteohub

Weather-server
Raspberry PI 2 B+

Provider
1 and 1

Davis Vue

Meteohub

Raspberry PI 2 B+

1 and 1